Time;durP1;ratioP1;P1;durP2;ratioP2;P2;SDS_P1;SDS_P2;PMS_P1;PMS_P2;Temp;Humidity;BMP_temperature;BMP_pressure;BME280_temperature;BME280_humidity;BME280_pressure;Samples;Min_cycle;Max_cycle;Signal;HPM_P1;HPM_P2
2022/07/15 00:00:27;;;;;;;9.75;1.52;;;14.70;99.90;;;;;;5015569;28;20085;-93
2022/07/15 00:02:52;;;;;;;12.70;1.88;;;14.70;99.90;;;;;;5016846;28;20061;-92
2022/07/15 00:05:18;;;;;;;12.35;1.75;;;14.70;99.90;;;;;;5015412;28;20049;-93
2022/07/15 00:07:46;;;;;;;10.02;1.70;;;14.70;99.90;;;;;;5016817;28;20163;-92
2022/07/15 00:10:18;;;;;;;10.10;1.48;;;14.70;99.90;;;;;;5015847;28;20139;-92
2022/07/15 00:12:48;;;;;;;10.10;1.90;;;14.70;99.90;;;;;;5015917;28;20057;-93
2022/07/15 00:15:14;;;;;;;8.80;1.75;;;14.70;99.90;;;;;;5015228;28;20349;-92
2022/07/15 00:17:41;;;;;;;13.50;1.88;;;14.80;99.90;;;;;;5016490;28;20455;-93
2022/07/15 00:20:08;;;;;;;13.27;2.15;;;14.80;99.90;;;;;;5014519;28;20056;-93
2022/07/15 00:22:33;;;;;;;10.10;1.67;;;14.80;99.90;;;;;;5016287;28;20394;-92
2022/07/15 00:24:59;;;;;;;13.70;1.60;;;14.70;99.90;;;;;;4998462;28;20046;-93
2022/07/15 00:27:25;;;;;;;7.32;1.25;;;14.80;99.90;;;;;;4997949;28;20045;-93
2022/07/15 00:29:51;;;;;;;8.80;1.40;;;14.80;99.90;;;;;;4998226;28;20045;-93
2022/07/15 00:32:17;;;;;;;14.80;1.50;;;14.80;99.90;;;;;;4996650;28;20041;-93
2022/07/15 00:34:43;;;;;;;10.40;1.48;;;14.80;99.90;;;;;;4995317;28;20045;-94
2022/07/15 00:37:09;;;;;;;12.07;1.98;;;14.80;99.90;;;;;;4995878;28;20459;-93
2022/07/15 00:39:35;;;;;;;14.95;2.03;;;14.80;99.90;;;;;;4996273;28;20067;-93
2022/07/15 00:42:00;;;;;;;12.13;1.88;;;14.80;99.90;;;;;;4995721;28;20140;-93
2022/07/15 00:44:26;;;;;;;14.85;1.60;;;14.80;99.90;;;;;;4995361;28;20045;-93
2022/07/15 00:46:53;;;;;;;9.55;1.30;;;14.80;99.90;;;;;;4996496;28;20128;-93
2022/07/15 00:49:19;;;;;;;11.70;1.67;;;14.70;99.90;;;;;;4995823;28;20045;-94
2022/07/15 00:51:49;;;;;;;8.63;1.95;;;14.70;99.90;;;;;;5011752;28;20504;-95
2022/07/15 00:54:16;;;;;;;11.02;1.40;;;14.60;99.90;;;;;;4995771;28;20041;-93
2022/07/15 00:56:46;;;;;;;8.50;1.60;;;14.50;99.90;;;;;;4995334;28;20473;-93
2022/07/15 00:59:13;;;;;;;10.63;1.75;;;14.40;99.90;;;;;;5012579;28;20111;-93
2022/07/15 01:01:41;;;;;;;13.52;1.98;;;14.40;99.90;;;;;;4997695;28;20067;-94
2022/07/15 01:04:07;;;;;;;9.80;1.65;;;14.30;99.90;;;;;;4997100;28;20041;-93
2022/07/15 01:06:33;;;;;;;12.50;1.30;;;14.20;99.90;;;;;;4995313;28;20404;-93
2022/07/15 01:08:59;;;;;;;12.00;1.52;;;14.20;99.90;;;;;;4995863;28;20041;-93
2022/07/15 01:11:26;;;;;;;17.60;1.42;;;14.10;99.90;;;;;;4994606;28;20057;-93
2022/07/15 01:13:52;;;;;;;7.10;1.25;;;14.10;99.90;;;;;;4996707;28;20111;-93
2022/07/15 01:16:18;;;;;;;10.65;1.48;;;14.00;99.90;;;;;;4996264;28;20577;-93
2022/07/15 01:18:44;;;;;;;11.38;1.45;;;14.00;99.90;;;;;;4996568;28;20132;-93
2022/07/15 01:21:09;;;;;;;7.70;1.27;;;14.10;99.90;;;;;;4995372;28;20116;-93
2022/07/15 01:23:36;;;;;;;7.43;1.13;;;14.10;99.90;;;;;;4997068;28;20366;-92
2022/07/15 01:26:02;;;;;;;7.13;1.27;;;14.10;99.90;;;;;;4995776;28;20084;-93
2022/07/15 01:28:28;;;;;;;6.63;1.15;;;14.20;99.90;;;;;;5012154;28;20038;-93
2022/07/15 01:30:53;;;;;;;9.00;1.08;;;14.20;99.90;;;;;;4995304;28;20516;-93
2022/07/15 01:33:19;;;;;;;8.70;1.30;;;14.20;99.90;;;;;;4995803;28;20136;-92
2022/07/15 01:35:45;;;;;;;10.02;1.27;;;14.20;99.90;;;;;;4994622;28;20669;-94
2022/07/15 01:38:10;;;;;;;8.48;1.13;;;14.10;99.90;;;;;;4994622;28;20034;-92
2022/07/15 01:40:36;;;;;;;9.90;1.20;;;14.00;99.90;;;;;;4995346;28;20140;-93
2022/07/15 01:43:02;;;;;;;8.80;1.42;;;14.00;99.90;;;;;;5000726;28;20041;-93
2022/07/15 01:45:27;;;;;;;12.60;1.30;;;14.00;99.90;;;;;;5000247;28;20106;-93
2022/07/15 01:47:53;;;;;;;9.65;0.88;;;13.90;99.90;;;;;;5018978;28;20397;-94
2022/07/15 01:50:20;;;;;;;7.25;1.20;;;13.90;99.90;;;;;;5018179;28;20051;-94
2022/07/15 01:52:45;;;;;;;7.78;1.30;;;13.90;99.90;;;;;;5018749;28;20041;-94
2022/07/15 01:55:11;;;;;;;8.27;0.80;;;13.80;99.90;;;;;;5018534;28;20425;-94
2022/07/15 01:57:38;;;;;;;5.88;1.08;;;13.80;99.90;;;;;;5018493;28;20049;-94
2022/07/15 02:00:06;;;;;;;7.88;1.15;;;13.80;99.90;;;;;;5017576;28;20053;-93
2022/07/15 02:02:31;;;;;;;5.78;0.80;;;13.80;99.90;;;;;;5018449;28;20037;-93
2022/07/15 02:04:57;;;;;;;10.55;1.25;;;13.80;99.90;;;;;;5017459;28;20048;-94
2022/07/15 02:07:23;;;;;;;5.68;0.82;;;13.80;99.90;;;;;;5017608;28;20049;-94
2022/07/15 02:09:49;;;;;;;4.15;0.73;;;13.80;99.90;;;;;;5018339;28;20056;-93
2022/07/15 02:12:14;;;;;;;8.15;1.23;;;13.80;99.90;;;;;;5017932;28;20041;-94
2022/07/15 02:14:40;;;;;;;4.45;0.85;;;13.70;99.90;;;;;;5017760;28;20496;-93
2022/07/15 02:17:07;;;;;;;4.78;0.80;;;13.70;99.90;;;;;;5017850;28;20053;-95
2022/07/15 02:19:33;;;;;;;6.72;0.60;;;13.70;99.90;;;;;;5018196;28;20041;-93
2022/07/15 02:21:59;;;;;;;7.15;0.77;;;13.60;99.90;;;;;;5017245;28;20106;-93
2022/07/15 02:24:25;;;;;;;6.10;1.02;;;13.50;99.90;;;;;;5001239;28;20045;-94
2022/07/15 02:26:50;;;;;;;6.53;0.70;;;13.50;99.90;;;;;;4997968;28;20049;-93
2022/07/15 02:29:16;;;;;;;5.65;1.48;;;13.40;99.90;;;;;;4999072;28;20168;-93
2022/07/15 02:31:42;;;;;;;10.15;0.88;;;13.30;99.90;;;;;;5015276;28;20493;-92
2022/07/15 02:34:08;;;;;;;5.13;0.82;;;13.30;99.90;;;;;;4997560;28;20037;-93
2022/07/15 02:36:35;;;;;;;7.75;0.90;;;13.30;99.90;;;;;;4997130;28;20071;-93
2022/07/15 02:39:02;;;;;;;4.97;0.60;;;13.20;99.90;;;;;;4998265;28;20790;-93
2022/07/15 02:41:29;;;;;;;5.40;0.63;;;13.20;99.90;;;;;;4997282;28;20085;-92
2022/07/15 02:43:55;;;;;;;4.55;0.60;;;13.20;99.90;;;;;;4998562;28;20045;-93
2022/07/15 02:46:20;;;;;;;6.68;0.65;;;13.20;99.90;;;;;;4997336;28;20077;-93
2022/07/15 02:48:46;;;;;;;5.03;0.93;;;13.10;99.90;;;;;;4997874;28;20088;-93
2022/07/15 02:51:12;;;;;;;4.68;0.63;;;13.10;99.90;;;;;;4997303;28;20452;-92
2022/07/15 02:53:39;;;;;;;5.72;0.65;;;13.10;99.90;;;;;;5013069;28;20045;-93
2022/07/15 02:56:05;;;;;;;7.28;0.80;;;13.10;99.90;;;;;;4997570;28;20405;-93
2022/07/15 02:58:31;;;;;;;3.25;0.43;;;13.10;99.90;;;;;;5014266;28;20050;-93
2022/07/15 03:00:59;;;;;;;6.95;1.13;;;13.10;99.90;;;;;;5014790;28;20041;-92
2022/07/15 03:03:27;;;;;;;6.32;0.60;;;13.10;99.90;;;;;;4997127;28;20112;-93
2022/07/15 03:05:56;;;;;;;5.82;0.88;;;13.10;99.90;;;;;;4997189;28;20084;-93
2022/07/15 03:08:21;;;;;;;2.35;0.32;;;13.10;99.90;;;;;;4998027;28;20049;-92
2022/07/15 03:10:47;;;;;;;5.70;0.60;;;13.10;99.90;;;;;;4997064;28;20397;-93
2022/07/15 03:13:13;;;;;;;6.75;0.60;;;13.20;99.90;;;;;;5010236;28;20056;-93
2022/07/15 03:15:38;;;;;;;4.25;0.68;;;13.20;99.90;;;;;;5018567;28;20115;-93
2022/07/15 03:18:04;;;;;;;6.22;0.70;;;13.20;99.90;;;;;;5018832;28;20131;-93
2022/07/15 03:20:30;;;;;;;5.65;0.98;;;13.20;99.90;;;;;;5018458;28;20056;-93
2022/07/15 03:22:55;;;;;;;3.47;0.40;;;13.20;99.90;;;;;;5018645;28;20135;-93
2022/07/15 03:25:21;;;;;;;4.50;0.60;;;13.20;99.90;;;;;;5016833;28;20045;-93
2022/07/15 03:27:47;;;;;;;5.45;0.60;;;13.20;99.90;;;;;;5017269;28;20076;-94
2022/07/15 03:30:13;;;;;;;6.32;0.73;;;13.20;99.90;;;;;;5017106;28;20044;-94
2022/07/15 03:32:38;;;;;;;6.57;1.02;;;13.20;99.90;;;;;;5016831;28;20485;-93
2022/07/15 03:35:04;;;;;;;6.50;1.15;;;13.30;99.90;;;;;;5015922;28;20044;-93
2022/07/15 03:37:30;;;;;;;9.32;0.85;;;13.30;99.90;;;;;;5016373;28;20052;-92
2022/07/15 03:39:56;;;;;;;4.18;0.65;;;13.30;99.90;;;;;;5016686;28;20045;-94
2022/07/15 03:42:21;;;;;;;8.15;1.25;;;13.40;99.90;;;;;;5018486;28;20095;-94
2022/07/15 03:44:47;;;;;;;4.60;0.60;;;13.40;99.90;;;;;;5016637;28;20055;-93
2022/07/15 03:47:13;;;;;;;8.65;0.98;;;13.40;99.90;;;;;;5001099;28;20042;-94
2022/07/15 03:49:39;;;;;;;4.28;0.65;;;13.40;99.90;;;;;;4996886;28;20125;-94
2022/07/15 03:52:05;;;;;;;4.20;0.73;;;13.40;99.90;;;;;;4997616;28;20076;-93
2022/07/15 03:54:31;;;;;;;7.13;1.30;;;13.40;99.90;;;;;;4997307;28;20053;-94
2022/07/15 03:56:56;;;;;;;4.57;0.80;;;13.40;99.90;;;;;;4997342;28;20060;-93
2022/07/15 03:59:22;;;;;;;9.20;1.17;;;13.40;99.90;;;;;;4998241;28;20058;-93
2022/07/15 04:01:49;;;;;;;5.18;1.23;;;13.50;99.90;;;;;;4997493;28;20124;-94
2022/07/15 04:04:16;;;;;;;5.63;1.08;;;13.50;99.90;;;;;;5002661;28;20029;-93
2022/07/15 04:06:41;;;;;;;5.97;0.80;;;13.60;99.90;;;;;;4995307;28;20049;-94
2022/07/15 04:09:09;;;;;;;7.78;1.20;;;13.60;99.90;;;;;;4998460;28;20050;-93
2022/07/15 04:11:35;;;;;;;3.72;0.55;;;13.60;99.90;;;;;;4995738;28;20060;-93
2022/07/15 04:14:01;;;;;;;8.20;1.25;;;13.60;99.90;;;;;;5014479;28;20057;-94
2022/07/15 04:16:27;;;;;;;7.03;0.85;;;13.70;99.90;;;;;;4997001;28;20139;-93
2022/07/15 04:18:53;;;;;;;9.40;0.80;;;13.70;99.90;;;;;;4997585;28;20041;-93
2022/07/15 04:21:19;;;;;;;3.28;0.50;;;13.80;99.90;;;;;;4996832;28;20049;-93
2022/07/15 04:23:45;;;;;;;7.43;0.80;;;13.80;99.90;;;;;;4996453;28;20048;-94
2022/07/15 04:26:11;;;;;;;6.70;0.60;;;13.70;99.90;;;;;;5000150;28;20045;-94
2022/07/15 04:28:36;;;;;;;9.32;1.15;;;13.70;99.90;;;;;;5002308;28;20059;-93
2022/07/15 04:31:02;;;;;;;4.93;0.90;;;13.70;99.90;;;;;;4998212;28;20056;-95
2022/07/15 04:33:28;;;;;;;2.97;0.60;;;13.70;99.90;;;;;;4995672;28;20087;-92
2022/07/15 04:35:54;;;;;;;4.90;0.68;;;13.70;99.90;;;;;;4995096;28;20051;-93
2022/07/15 04:38:20;;;;;;;3.92;0.60;;;13.60;99.90;;;;;;4997903;28;20038;-93
2022/07/15 04:40:46;;;;;;;8.18;0.82;;;13.60;99.90;;;;;;5009215;28;20501;-95
2022/07/15 04:43:12;;;;;;;5.43;0.80;;;13.70;99.90;;;;;;5012448;28;20052;-93
2022/07/15 04:45:38;;;;;;;6.05;0.73;;;13.70;99.90;;;;;;5013468;28;20485;-92
2022/07/15 04:50:45;;;;;;;7.32;0.80;;;13.70;99.90;;;;;;5013437;28;20045;-93
2022/07/15 04:50:51;;;;;;;4.85;0.65;;;13.80;99.90;;;;;;5032147;28;20049;-94
2022/07/15 04:53:19;;;;;;;6.35;0.75;;;13.90;99.90;;;;;;5017210;28;20166;-93
2022/07/15 04:55:45;;;;;;;4.32;1.02;;;14.00;99.90;;;;;;5014869;28;20040;-93
2022/07/15 04:58:14;;;;;;;7.00;0.95;;;14.10;99.90;;;;;;5017375;28;20045;-94
2022/07/15 05:00:42;;;;;;;10.63;1.27;;;14.10;99.90;;;;;;5015457;28;20480;-92
2022/07/15 05:03:08;;;;;;;4.30;0.50;;;14.20;99.90;;;;;;5016507;28;20052;-92
2022/07/15 05:05:33;;;;;;;7.93;0.63;;;14.30;99.90;;;;;;5014289;28;20404;-93
2022/07/15 05:07:59;;;;;;;6.65;0.47;;;14.30;99.90;;;;;;5017803;28;20055;-93
2022/07/15 05:10:25;;;;;;;4.22;0.52;;;14.40;99.90;;;;;;5015971;28;20033;-94
2022/07/15 05:12:53;;;;;;;6.15;1.00;;;14.40;99.90;;;;;;5016755;28;20053;-93
2022/07/15 05:15:18;;;;;;;5.45;0.80;;;14.40;99.90;;;;;;5016402;28;20057;-94
2022/07/15 05:17:44;;;;;;;3.85;0.68;;;14.50;99.90;;;;;;5017235;28;20496;-94
2022/07/15 05:20:10;;;;;;;3.78;0.52;;;14.50;99.90;;;;;;5022639;28;20149;-95
2022/07/15 05:22:36;;;;;;;5.53;0.60;;;14.50;99.90;;;;;;5018598;28;20041;-93
2022/07/15 05:25:03;;;;;;;7.28;1.05;;;14.60;99.90;;;;;;5021151;28;20092;-93
2022/07/15 05:27:28;;;;;;;12.07;1.20;;;14.80;99.90;;;;;;5019139;28;20045;-93
2022/07/15 05:29:54;;;;;;;7.60;0.73;;;14.80;99.90;;;;;;5018581;28;20546;-93
2022/07/15 05:32:20;;;;;;;7.55;0.95;;;14.80;99.90;;;;;;5019979;28;20075;-94
2022/07/15 05:34:46;;;;;;;4.15;0.70;;;14.90;99.90;;;;;;5021188;28;20044;-93
2022/07/15 05:37:12;;;;;;;3.63;0.50;;;14.90;99.90;;;;;;5018678;28;20052;-94
2022/07/15 05:39:53;;;;;;;4.20;0.45;;;14.90;99.90;;;;;;5020019;28;20040;-93
2022/07/15 05:42:20;;;;;;;5.78;0.88;;;14.90;99.90;;;;;;5022753;28;20068;-93
2022/07/15 05:44:46;;;;;;;7.15;0.57;;;15.00;99.90;;;;;;5020063;28;20068;-93
2022/07/15 05:47:12;;;;;;;8.93;1.08;;;15.00;99.90;;;;;;5003629;28;20037;-93
2022/07/15 05:49:38;;;;;;;4.88;0.60;;;15.00;99.90;;;;;;4999903;28;20426;-93
2022/07/15 05:52:04;;;;;;;7.22;0.90;;;15.10;99.90;;;;;;5004529;28;20037;-93
2022/07/15 05:54:30;;;;;;;9.20;0.70;;;15.10;99.90;;;;;;5015237;28;20049;-94
2022/07/15 05:56:55;;;;;;;5.72;0.75;;;15.10;99.90;;;;;;5018884;28;20056;-92
2022/07/15 05:59:21;;;;;;;5.82;0.80;;;15.20;99.90;;;;;;5014865;28;20084;-92
2022/07/15 06:01:47;;;;;;;4.28;0.50;;;15.20;99.90;;;;;;5019281;28;20103;-93
2022/07/15 06:04:13;;;;;;;6.47;0.57;;;15.20;99.90;;;;;;5015439;28;20038;-94
2022/07/15 06:06:39;;;;;;;7.05;0.70;;;15.20;99.90;;;;;;5014726;28;20057;-93
2022/07/15 06:09:05;;;;;;;7.22;0.68;;;15.30;99.90;;;;;;5025303;28;20478;-94
2022/07/15 06:11:31;;;;;;;8.52;0.88;;;15.30;99.90;;;;;;5017781;28;20057;-94
2022/07/15 06:13:56;;;;;;;4.80;0.50;;;15.40;99.90;;;;;;5018049;28;20076;-93
2022/07/15 06:16:22;;;;;;;5.07;0.73;;;15.40;99.90;;;;;;5017949;28;20051;-94
2022/07/15 06:18:50;;;;;;;13.32;1.20;;;15.40;99.90;;;;;;5017994;28;20049;-94
2022/07/15 06:21:16;;;;;;;6.07;0.88;;;15.30;99.90;;;;;;5017563;28;20240;-95
2022/07/15 06:23:42;;;;;;;5.97;0.80;;;15.30;99.90;;;;;;5018274;28;20056;-96
2022/07/15 06:26:08;;;;;;;6.93;0.85;;;15.10;99.90;;;;;;5019200;28;20408;-96
2022/07/15 06:28:34;;;;;;;19.00;1.10;;;14.90;99.90;;;;;;5019185;28;20055;-96
2022/07/15 06:31:00;;;;;;;7.50;0.63;;;14.80;99.90;;;;;;5020775;28;20049;-95
2022/07/15 06:33:27;;;;;;;4.63;0.90;;;14.70;99.90;;;;;;5017376;28;20136;-96
2022/07/15 06:36:03;;;;;;;5.15;0.52;;;14.70;99.90;;;;;;5010626;28;20490;-96
2022/07/15 06:38:32;;;;;;;5.20;0.70;;;14.80;99.90;;;;;;4987557;28;20046;-96
2022/07/15 06:40:58;;;;;;;5.57;0.50;;;14.90;99.90;;;;;;5031583;28;20486;-96
2022/07/15 06:43:24;;;;;;;10.32;0.70;;;15.10;99.90;;;;;;5014113;28;20037;-96
2022/07/15 06:45:50;;;;;;;5.80;0.40;;;15.20;99.90;;;;;;5002452;28;20107;-96
2022/07/15 06:48:15;;;;;;;3.20;0.40;;;15.40;99.90;;;;;;5017138;28;20128;-96
2022/07/15 06:50:42;;;;;;;6.07;0.75;;;15.40;99.90;;;;;;5003198;28;20498;-96
2022/07/15 07:01:25;;;;;;;3.75;0.70;;;15.40;99.90;;;;;;5068389;28;20118;-87
2022/07/15 07:04:49;;;;;;;;;;;;;;;;;;;;;
2022/07/15 07:08:15;;;;;;;;;;;;;;;;;;;;;
2022/07/15 07:15:47;;;;;;;19.15;1.98;;;15.60;99.90;;;;;;4976252;28;20045;-86
2022/07/15 07:18:36;;;;;;;14.10;1.20;;;15.50;99.90;;;;;;5046405;28;20049;-87
2022/07/15 07:21:37;;;;;;;18.30;2.80;;;16.00;99.90;;;;;;4998285;28;20040;-87
2022/07/15 07:24:26;;;;;;;11.40;1.85;;;16.30;99.90;;;;;;5015899;28;20044;-87
2022/07/15 07:27:08;;;;;;;;;;;;;;;;;;;;;
2022/07/15 07:29:54;;;;;;;18.58;1.08;;;16.50;99.90;;;;;;5032523;28;20048;-88
2022/07/15 07:32:29;;;;;;;14.35;0.88;;;16.50;99.90;;;;;;5021528;28;20036;-87
2022/07/15 07:35:46;;;;;;;;;;;;;;;;;;;;;
2022/07/15 07:47:20;;;;;;;4.35;0.80;;;17.40;99.90;;;;;;4882860;29;20054;-88
2022/07/15 07:50:51;;;;;;;27.13;2.03;;;17.60;99.90;;;;;;4902096;29;20056;-87
2022/07/15 07:53:06;;;;;;;28.13;1.88;;;17.30;99.90;;;;;;4932009;29;20208;-86
2022/07/15 08:02:05;;;;;;;10.27;0.82;;;17.20;99.90;;;;;;5006311;28;20050;-95
2022/07/15 08:04:30;;;;;;;9.23;0.70;;;17.30;99.90;;;;;;4996460;28;20030;-94
2022/07/15 08:06:57;;;;;;;9.18;0.80;;;17.50;99.90;;;;;;4996171;28;20034;-93
2022/07/15 08:09:23;;;;;;;6.68;0.80;;;17.60;99.90;;;;;;4995322;28;20050;-95
2022/07/15 08:11:48;;;;;;;5.03;0.50;;;17.70;99.90;;;;;;4991527;28;20045;-95
2022/07/15 08:14:14;;;;;;;5.03;0.60;;;17.80;99.90;;;;;;4985272;28;20505;-94
2022/07/15 08:16:42;;;;;;;3.03;0.38;;;17.80;99.90;;;;;;4975049;28;20467;-95
2022/07/15 08:19:09;;;;;;;5.75;0.60;;;17.80;99.90;;;;;;4974222;28;20129;-94
2022/07/15 08:21:34;;;;;;;9.18;0.47;;;17.90;99.90;;;;;;4974456;28;20474;-95
2022/07/15 08:24:00;;;;;;;5.95;0.40;;;17.90;99.90;;;;;;4974800;28;20045;-94
2022/07/15 08:26:26;;;;;;;2.33;0.28;;;18.10;99.90;;;;;;4976109;28;20096;-95
2022/07/15 08:28:52;;;;;;;3.92;0.70;;;18.40;99.90;;;;;;5001925;23;20065;-95
2022/07/15 08:31:19;;;;;;;4.93;0.28;;;18.50;99.90;;;;;;4978572;28;20486;-93
2022/07/15 08:33:46;;;;;;;3.13;0.30;;;18.30;99.90;;;;;;4976552;28;20406;-95
2022/07/15 08:36:11;;;;;;;2.20;0.35;;;18.20;99.90;;;;;;4973275;28;20054;-94
2022/07/15 08:38:39;;;;;;;2.75;0.45;;;18.10;99.90;;;;;;4957443;28;20073;-94
2022/07/15 08:41:05;;;;;;;0.73;0.10;;;18.10;99.90;;;;;;4957070;28;20065;-95
2022/07/15 08:43:32;;;;;;;2.33;0.70;;;18.10;99.90;;;;;;4957215;28;20197;-94
2022/07/15 08:45:58;;;;;;;3.15;0.47;;;18.20;99.90;;;;;;4957481;28;20054;-94
2022/07/15 08:48:29;;;;;;;7.57;0.40;;;18.30;99.90;;;;;;4956242;28;20057;-94
2022/07/15 08:50:56;;;;;;;3.95;0.30;;;18.50;99.90;;;;;;4958244;28;20151;-94
2022/07/15 08:53:22;;;;;;;3.67;0.50;;;18.60;99.90;;;;;;4959143;28;20063;-94
2022/07/15 08:55:48;;;;;;;1.45;0.20;;;18.70;99.90;;;;;;4960390;28;20404;-96
2022/07/15 08:58:13;;;;;;;2.55;0.17;;;18.80;99.90;;;;;;4958456;28;20042;-95
2022/07/15 09:00:39;;;;;;;6.53;0.47;;;18.70;99.90;;;;;;4959101;28;20050;-95
2022/07/15 09:03:06;;;;;;;5.40;0.40;;;18.60;99.90;;;;;;4959146;28;20097;-93
2022/07/15 09:05:34;;;;;;;4.18;0.32;;;18.50;99.90;;;;;;4956541;28;20129;-94
2022/07/15 09:08:04;;;;;;;2.88;0.40;;;18.40;99.90;;;;;;4957054;28;20042;-93
2022/07/15 09:10:50;;;;;;;4.50;0.40;;;18.20;99.90;;;;;;4956499;28;20116;-94
2022/07/15 09:13:30;;;;;;;4.25;0.40;;;18.40;99.90;;;;;;4957326;28;20065;-95
2022/07/15 09:16:04;;;;;;;3.53;0.65;;;18.40;99.90;;;;;;4959924;28;20483;-95
2022/07/15 09:18:35;;;;;;;5.50;0.63;;;18.70;99.90;;;;;;4956776;28;20081;-95
2022/07/15 09:21:01;;;;;;;3.95;0.55;;;19.20;99.90;;;;;;4957737;28;20047;-94
2022/07/15 09:23:29;;;;;;;2.58;0.35;;;19.50;99.90;;;;;;4956347;28;20399;-94
2022/07/15 09:25:58;;;;;;;2.63;0.40;;;19.40;99.90;;;;;;4957870;28;20498;-94
2022/07/15 09:28:36;;;;;;;5.95;0.50;;;19.20;99.90;;;;;;4955894;28;20098;-94
2022/07/15 09:33:49;;;;;;;1.40;0.20;;;18.80;99.90;;;;;;4970244;28;20402;-94
2022/07/15 09:36:20;;;;;;;2.60;0.20;;;18.70;99.90;;;;;;4952039;28;20043;-94
2022/07/15 09:38:48;;;;;;;3.88;0.30;;;18.70;99.90;;;;;;4953789;28;20050;-94
2022/07/15 09:41:33;;;;;;;2.22;0.30;;;18.60;99.90;;;;;;4953846;28;20054;-94
2022/07/15 09:44:05;;;;;;;3.20;0.45;;;18.60;99.90;;;;;;4954118;28;20069;-93
2022/07/15 09:46:43;;;;;;;5.28;0.45;;;18.60;99.90;;;;;;4953280;28;20047;-94
2022/07/15 09:49:09;;;;;;;3.85;0.40;;;18.70;99.90;;;;;;4953711;28;20051;-94
2022/07/15 09:51:46;;;;;;;3.90;0.43;;;18.70;99.90;;;;;;4955684;28;20047;-94
2022/07/15 09:54:12;;;;;;;3.92;0.30;;;18.80;99.90;;;;;;4953239;28;20093;-95
2022/07/15 09:56:38;;;;;;;5.07;0.47;;;18.90;99.90;;;;;;4956582;28;20557;-94
2022/07/15 09:59:04;;;;;;;3.95;0.30;;;19.10;99.90;;;;;;4953921;28;20078;-95
2022/07/15 10:01:30;;;;;;;5.75;0.40;;;19.50;99.90;;;;;;4957718;28;20046;-94
2022/07/15 10:03:57;;;;;;;6.80;0.43;;;19.60;99.90;;;;;;4976528;28;20045;-95
2022/07/15 10:06:27;;;;;;;3.05;0.40;;;19.70;99.90;;;;;;4975329;28;20051;-93
2022/07/15 10:08:53;;;;;;;0.98;0.25;;;19.80;99.90;;;;;;4976340;28;20834;-94
2022/07/15 10:11:20;;;;;;;4.45;0.40;;;19.90;99.90;;;;;;4975639;28;20072;-95
2022/07/15 10:14:02;;;;;;;2.00;0.25;;;19.90;99.90;;;;;;4976385;28;20478;-95
2022/07/15 10:16:32;;;;;;;7.68;0.50;;;19.90;99.90;;;;;;4978420;28;20129;-95
2022/07/15 10:19:20;;;;;;;2.75;0.40;;;19.90;99.90;;;;;;4977528;28;20055;-93
2022/07/15 10:21:59;;;;;;;13.60;0.60;;;19.90;99.90;;;;;;4975717;28;20137;-90
2022/07/15 10:24:43;;;;;;;4.90;0.55;;;19.90;99.90;;;;;;4976159;28;20470;-91
2022/07/15 10:27:33;;;;;;;4.75;0.57;;;19.80;99.90;;;;;;4972530;28;20077;-89
2022/07/15 10:30:07;;;;;;;5.28;0.40;;;19.90;99.90;;;;;;4959298;28;20050;-89
2022/07/15 10:33:02;;;;;;;8.25;0.80;;;20.00;99.90;;;;;;4957035;28;20490;-89
2022/07/15 10:35:37;;;;;;;2.70;0.77;;;20.20;99.90;;;;;;4962001;28;20109;-91
2022/07/15 10:38:22;;;;;;;2.20;0.40;;;20.40;99.90;;;;;;4960048;28;20343;-90
2022/07/15 10:41:09;;;;;;;9.13;0.50;;;20.60;99.90;;;;;;4975152;28;20569;-90
2022/07/15 10:43:47;;;;;;;4.47;0.30;;;20.60;99.90;;;;;;4957518;28;20049;-90
2022/07/15 10:46:16;;;;;;;2.85;0.40;;;20.50;99.90;;;;;;4957528;28;20510;-90
2022/07/15 10:48:51;;;;;;;6.03;0.60;;;20.30;99.90;;;;;;4975042;28;20045;-91
2022/07/15 10:51:43;;;;;;;0.90;0.20;;;20.20;99.90;;;;;;4972704;28;20137;-89
2022/07/15 10:54:30;;;;;;;2.00;0.22;;;19.80;99.90;;;;;;4955627;28;20129;-89
2022/07/15 10:56:57;;;;;;;3.88;0.40;;;19.50;99.90;;;;;;4974201;28;20045;-90
2022/07/15 10:59:24;;;;;;;2.72;0.40;;;19.20;99.90;;;;;;4957362;28;20136;-89
2022/07/15 11:02:12;;;;;;;1.35;0.10;;;19.10;99.90;;;;;;4960515;28;20042;-89
2022/07/15 11:04:38;;;;;;;2.20;0.20;;;18.90;99.90;;;;;;4957028;28;20096;-88
2022/07/15 11:07:07;;;;;;;2.10;0.30;;;18.90;99.90;;;;;;4971475;28;20045;-88
2022/07/15 11:09:54;;;;;;;4.38;0.30;;;18.80;99.90;;;;;;4976760;28;20099;-89
2022/07/15 11:12:28;;;;;;;2.08;0.25;;;18.80;99.90;;;;;;4959549;28;20339;-90
2022/07/15 11:14:56;;;;;;;0.85;0.25;;;18.80;99.90;;;;;;4973919;28;20475;-90
2022/07/15 11:17:36;;;;;;;0.93;0.20;;;18.80;99.90;;;;;;4974564;28;20288;-90
2022/07/15 11:20:10;;;;;;;6.32;0.43;;;18.90;99.90;;;;;;4976492;28;20038;-89
2022/07/15 11:22:43;;;;;;;3.58;0.47;;;18.90;99.90;;;;;;4974753;28;20081;-91
2022/07/15 11:25:20;;;;;;;3.47;0.40;;;18.90;99.90;;;;;;4973217;28;20046;-89
2022/07/15 11:28:00;;;;;;;2.80;0.40;;;18.90;99.90;;;;;;4963481;28;20072;-89
2022/07/15 11:30:28;;;;;;;1.88;0.20;;;19.00;99.90;;;;;;4976282;28;20133;-90
2022/07/15 11:32:56;;;;;;;2.42;0.40;;;19.10;99.90;;;;;;4975786;28;20048;-89
2022/07/15 11:35:22;;;;;;;2.70;0.22;;;19.20;99.90;;;;;;4975846;28;20050;-89
2022/07/15 11:37:56;;;;;;;2.15;0.40;;;19.20;99.90;;;;;;4977615;28;20939;-89
2022/07/15 11:45:58;;;;;;;3.25;0.40;;;19.60;99.90;;;;;;4994099;28;20148;-90
2022/07/15 11:48:24;;;;;;;2.50;0.30;;;19.80;99.90;;;;;;4976898;28;20161;-89
2022/07/15 11:50:54;;;;;;;3.67;0.50;;;20.00;99.90;;;;;;4975710;28;20572;-88
2022/07/15 11:53:20;;;;;;;2.67;0.20;;;20.10;99.90;;;;;;4976784;28;20053;-89
2022/07/15 11:55:51;;;;;;;3.85;0.40;;;20.20;99.90;;;;;;4977213;28;20474;-88
2022/07/15 11:58:25;;;;;;;2.90;0.40;;;20.10;99.90;;;;;;4979827;28;20042;-90
2022/07/15 12:00:51;;;;;;;1.70;0.30;;;20.10;99.90;;;;;;4975857;28;20057;-90
2022/07/15 12:03:17;;;;;;;4.93;0.55;;;20.10;99.90;;;;;;4973777;28;20505;-89
2022/07/15 12:05:57;;;;;;;2.58;0.35;;;20.20;99.90;;;;;;4973409;28;20518;-89
2022/07/15 12:08:34;;;;;;;2.50;0.40;;;20.30;99.90;;;;;;4973274;28;20514;-88
2022/07/15 12:11:00;;;;;;;2.78;0.40;;;20.40;99.90;;;;;;4972915;28;20046;-89
2022/07/15 12:13:28;;;;;;;3.75;0.40;;;20.30;99.90;;;;;;4975640;28;20046;-88
2022/07/15 12:15:54;;;;;;;6.22;0.50;;;20.30;99.90;;;;;;4974148;28;20057;-89
2022/07/15 12:18:20;;;;;;;6.60;0.73;;;20.20;99.90;;;;;;4974729;28;20050;-88
2022/07/15 12:20:46;;;;;;;2.67;0.38;;;20.10;99.90;;;;;;4973550;28;20056;-90
2022/07/15 12:23:12;;;;;;;4.63;0.70;;;19.90;99.90;;;;;;4975099;28;20050;-89
2022/07/15 12:25:38;;;;;;;9.73;0.77;;;19.70;99.90;;;;;;4972574;28;20099;-89
2022/07/15 12:28:04;;;;;;;9.02;1.25;;;19.60;99.90;;;;;;4973211;28;20072;-88
2022/07/15 12:30:34;;;;;;;9.73;0.57;;;19.60;99.90;;;;;;4975450;28;20053;-88
2022/07/15 12:33:21;;;;;;;3.08;0.40;;;19.60;99.90;;;;;;4972180;28;20549;-89
2022/07/15 12:35:48;;;;;;;10.32;0.82;;;19.60;99.90;;;;;;4976567;28;20037;-89
2022/07/15 12:38:30;;;;;;;7.20;0.60;;;19.60;99.90;;;;;;4977703;28;20060;-89
2022/07/15 12:41:07;;;;;;;2.30;0.57;;;19.50;99.90;;;;;;4976651;28;20053;-88
2022/07/15 12:43:56;;;;;;;4.93;0.55;;;19.60;99.90;;;;;;4976491;28;20038;-88
2022/07/15 12:47:01;;;;;;;4.18;0.63;;;19.60;99.90;;;;;;4975799;28;20053;-88
2022/07/15 12:49:49;;;;;;;2.78;0.68;;;19.60;99.90;;;;;;4978239;28;20397;-87
2022/07/15 12:52:19;;;;;;;6.18;0.63;;;19.50;99.90;;;;;;4978273;28;20057;-87
2022/07/15 12:54:45;;;;;;;3.45;0.50;;;19.40;99.90;;;;;;4978026;28;20483;-88
2022/07/15 12:57:31;;;;;;;5.88;0.60;;;19.30;99.90;;;;;;4994494;28;20490;-88
2022/07/15 12:59:59;;;;;;;8.77;0.60;;;19.20;99.90;;;;;;4977014;28;20049;-88
2022/07/15 13:02:26;;;;;;;5.15;0.80;;;19.10;99.90;;;;;;4975602;28;20057;-88
2022/07/15 13:04:52;;;;;;;7.57;0.77;;;19.00;99.90;;;;;;4975630;28;20050;-88
2022/07/15 13:07:18;;;;;;;2.95;0.63;;;19.10;99.90;;;;;;4974470;28;20052;-89
2022/07/15 13:09:44;;;;;;;7.00;0.65;;;19.10;99.90;;;;;;4975255;28;20038;-88
2022/07/15 13:12:12;;;;;;;3.88;0.60;;;19.10;99.90;;;;;;4975764;28;20046;-88
2022/07/15 13:14:39;;;;;;;4.00;0.60;;;19.20;99.90;;;;;;4978117;28;20132;-87
2022/07/15 13:17:05;;;;;;;2.83;0.38;;;19.30;99.90;;;;;;4976410;28;20038;-89
2022/07/15 13:19:32;;;;;;;3.05;0.68;;;19.40;99.90;;;;;;4976188;28;20042;-89
2022/07/15 13:21:59;;;;;;;3.05;0.32;;;19.60;99.90;;;;;;4977860;28;20231;-88
2022/07/15 13:24:25;;;;;;;3.47;0.55;;;19.70;99.90;;;;;;4972496;28;20078;-90
2022/07/15 13:26:51;;;;;;;4.78;0.75;;;19.80;99.90;;;;;;4965233;28;20076;-89
2022/07/15 13:29:17;;;;;;;3.30;0.50;;;19.90;99.90;;;;;;4981358;28;20057;-88
2022/07/15 13:31:43;;;;;;;2.65;0.63;;;19.80;99.90;;;;;;4982805;28;20073;-89
2022/07/15 13:34:09;;;;;;;3.28;0.55;;;19.90;99.90;;;;;;4977751;28;20081;-93
2022/07/15 13:36:36;;;;;;;6.93;0.68;;;19.90;99.90;;;;;;4976499;28;20042;-94
2022/07/15 13:39:02;;;;;;;5.45;0.60;;;19.80;99.90;;;;;;4978937;28;20188;-93